sensor_id;sensor_type;location;lat;lon;timestamp;temperature;humidity
6752;DHT22;3413;47.680;9.166;2022-12-07T00:03:55;7.20;99.90
6752;DHT22;3413;47.680;9.166;2022-12-07T00:09:14;7.30;99.90
6752;DHT22;3413;47.680;9.166;2022-12-07T00:14:25;7.30;99.90
6752;DHT22;3413;47.680;9.166;2022-12-07T00:19:37;7.20;99.90
6752;DHT22;3413;47.680;9.166;2022-12-07T00:24:43;7.10;99.90
6752;DHT22;3413;47.680;9.166;2022-12-07T00:30:01;7.10;99.90
6752;DHT22;3413;47.680;9.166;2022-12-07T00:35:06;7.10;99.90
6752;DHT22;3413;47.680;9.166;2022-12-07T00:40:17;7.00;99.90
6752;DHT22;3413;47.680;9.166;2022-12-07T00:52:47;7.10;99.90
6752;DHT22;3413;47.680;9.166;2022-12-07T00:58:15;7.10;99.90
6752;DHT22;3413;47.680;9.166;2022-12-07T01:03:25;7.10;99.90
6752;DHT22;3413;47.680;9.166;2022-12-07T01:08:52;7.20;99.90
6752;DHT22;3413;47.680;9.166;2022-12-07T01:14:03;7.30;99.90
6752;DHT22;3413;47.680;9.166;2022-12-07T01:19:13;7.30;99.90
6752;DHT22;3413;47.680;9.166;2022-12-07T01:24:20;7.10;99.90
6752;DHT22;3413;47.680;9.166;2022-12-07T01:29:27;7.10;99.90
6752;DHT22;3413;47.680;9.166;2022-12-07T01:34:48;7.00;99.90
6752;DHT22;3413;47.680;9.166;2022-12-07T01:39:54;7.00;99.90
6752;DHT22;3413;47.680;9.166;2022-12-07T01:45:34;7.00;99.90
6752;DHT22;3413;47.680;9.166;2022-12-07T01:51:04;7.00;99.90
6752;DHT22;3413;47.680;9.166;2022-12-07T01:56:10;7.10;99.90
6752;DHT22;3413;47.680;9.166;2022-12-07T02:01:13;7.10;99.90
6752;DHT22;3413;47.680;9.166;2022-12-07T02:06:19;7.10;99.90
6752;DHT22;3413;47.680;9.166;2022-12-07T02:11:22;7.10;99.90
6752;DHT22;3413;47.680;9.166;2022-12-07T02:27:47;7.20;99.90
6752;DHT22;3413;47.680;9.166;2022-12-07T02:33:08;7.20;99.90
6752;DHT22;3413;47.680;9.166;2022-12-07T02:38:15;7.20;99.90
6752;DHT22;3413;47.680;9.166;2022-12-07T02:48:25;7.30;99.90
6752;DHT22;3413;47.680;9.166;2022-12-07T03:04:38;7.40;99.90
6752;DHT22;3413;47.680;9.166;2022-12-07T03:15:05;7.40;99.90
6752;DHT22;3413;47.680;9.166;2022-12-07T03:20:11;7.40;99.90
6752;DHT22;3413;47.680;9.166;2022-12-07T03:25:16;7.40;99.90
6752;DHT22;3413;47.680;9.166;2022-12-07T03:30:39;7.40;99.90
6752;DHT22;3413;47.680;9.166;2022-12-07T03:41:26;7.30;99.90
6752;DHT22;3413;47.680;9.166;2022-12-07T03:52:03;7.30;99.90
6752;DHT22;3413;47.680;9.166;2022-12-07T03:57:09;7.30;99.90
6752;DHT22;3413;47.680;9.166;2022-12-07T04:02:13;7.40;99.90
6752;DHT22;3413;47.680;9.166;2022-12-07T04:07:16;7.40;99.90
6752;DHT22;3413;47.680;9.166;2022-12-07T04:12:19;7.40;99.90
6752;DHT22;3413;47.680;9.166;2022-12-07T04:17:21;7.40;99.90
6752;DHT22;3413;47.680;9.166;2022-12-07T04:22:23;7.30;99.90
6752;DHT22;3413;47.680;9.166;2022-12-07T04:27:25;7.40;99.90
6752;DHT22;3413;47.680;9.166;2022-12-07T04:32:27;7.40;99.90
6752;DHT22;3413;47.680;9.166;2022-12-07T04:37:29;7.40;99.90
6752;DHT22;3413;47.680;9.166;2022-12-07T04:42:31;7.40;99.90
6752;DHT22;3413;47.680;9.166;2022-12-07T04:47:33;7.30;99.90
6752;DHT22;3413;47.680;9.166;2022-12-07T04:52:35;7.40;99.90
6752;DHT22;3413;47.680;9.166;2022-12-07T04:57:37;7.40;99.90
6752;DHT22;3413;47.680;9.166;2022-12-07T05:02:39;7.30;99.90
6752;DHT22;3413;47.680;9.166;2022-12-07T05:07:41;7.20;99.90
6752;DHT22;3413;47.680;9.166;2022-12-07T05:12:44;7.10;99.90
6752;DHT22;3413;47.680;9.166;2022-12-07T05:17:47;7.30;99.90
6752;DHT22;3413;47.680;9.166;2022-12-07T05:22:49;7.20;99.90
6752;DHT22;3413;47.680;9.166;2022-12-07T05:27:51;7.30;99.90
6752;DHT22;3413;47.680;9.166;2022-12-07T05:32:53;7.30;99.90
6752;DHT22;3413;47.680;9.166;2022-12-07T05:37:56;7.40;99.90
6752;DHT22;3413;47.680;9.166;2022-12-07T05:42:59;7.40;99.90
6752;DHT22;3413;47.680;9.166;2022-12-07T05:48:05;7.50;99.90
6752;DHT22;3413;47.680;9.166;2022-12-07T05:53:07;7.50;99.90
6752;DHT22;3413;47.680;9.166;2022-12-07T05:58:10;7.50;99.90
6752;DHT22;3413;47.680;9.166;2022-12-07T06:03:30;7.50;99.90
6752;DHT22;3413;47.680;9.166;2022-12-07T06:08:32;7.50;99.90
6752;DHT22;3413;47.680;9.166;2022-12-07T06:13:34;7.60;99.90
6752;DHT22;3413;47.680;9.166;2022-12-07T06:18:37;7.60;99.90
6752;DHT22;3413;47.680;9.166;2022-12-07T06:23:39;7.70;99.90
6752;DHT22;3413;47.680;9.166;2022-12-07T06:28:42;7.80;99.90
6752;DHT22;3413;47.680;9.166;2022-12-07T06:33:44;7.80;99.90
6752;DHT22;3413;47.680;9.166;2022-12-07T06:38:46;7.80;99.90
6752;DHT22;3413;47.680;9.166;2022-12-07T06:43:48;7.80;99.90
6752;DHT22;3413;47.680;9.166;2022-12-07T06:48:56;7.90;99.90
6752;DHT22;3413;47.680;9.166;2022-12-07T06:53:58;7.90;99.90
6752;DHT22;3413;47.680;9.166;2022-12-07T06:59:01;7.90;99.90
6752;DHT22;3413;47.680;9.166;2022-12-07T07:04:04;7.90;99.90
6752;DHT22;3413;47.680;9.166;2022-12-07T07:09:06;7.90;99.90
6752;DHT22;3413;47.680;9.166;2022-12-07T07:14:08;7.90;99.90
6752;DHT22;3413;47.680;9.166;2022-12-07T07:19:10;8.00;99.90
6752;DHT22;3413;47.680;9.166;2022-12-07T07:24:12;8.00;99.90
6752;DHT22;3413;47.680;9.166;2022-12-07T07:29:14;8.00;99.90
6752;DHT22;3413;47.680;9.166;2022-12-07T07:34:16;8.00;99.90
6752;DHT22;3413;47.680;9.166;2022-12-07T07:39:18;8.00;99.90
6752;DHT22;3413;47.680;9.166;2022-12-07T07:44:21;8.00;99.90
6752;DHT22;3413;47.680;9.166;2022-12-07T07:49:23;8.00;99.90
6752;DHT22;3413;47.680;9.166;2022-12-07T07:54:25;8.00;99.90
6752;DHT22;3413;47.680;9.166;2022-12-07T07:59:40;8.00;99.90
6752;DHT22;3413;47.680;9.166;2022-12-07T08:04:52;8.10;99.90
6752;DHT22;3413;47.680;9.166;2022-12-07T08:10:13;8.10;99.90
6752;DHT22;3413;47.680;9.166;2022-12-07T08:15:16;8.00;99.90
6752;DHT22;3413;47.680;9.166;2022-12-07T08:20:20;8.00;99.90
6752;DHT22;3413;47.680;9.166;2022-12-07T08:25:24;8.00;99.90
6752;DHT22;3413;47.680;9.166;2022-12-07T08:30:30;8.00;99.90
6752;DHT22;3413;47.680;9.166;2022-12-07T08:35:34;8.10;99.90
6752;DHT22;3413;47.680;9.166;2022-12-07T08:40:59;8.10;99.90
6752;DHT22;3413;47.680;9.166;2022-12-07T08:46:48;8.10;99.90
6752;DHT22;3413;47.680;9.166;2022-12-07T08:51:52;8.10;99.90
6752;DHT22;3413;47.680;9.166;2022-12-07T08:56:57;8.10;99.90
6752;DHT22;3413;47.680;9.166;2022-12-07T09:02:04;8.00;99.90
6752;DHT22;3413;47.680;9.166;2022-12-07T09:07:09;8.00;99.90
6752;DHT22;3413;47.680;9.166;2022-12-07T09:12:43;8.10;99.90
6752;DHT22;3413;47.680;9.166;2022-12-07T09:18:26;8.20;99.90
6752;DHT22;3413;47.680;9.166;2022-12-07T09:23:31;8.20;99.90
6752;DHT22;3413;47.680;9.166;2022-12-07T09:28:37;8.30;99.90
6752;DHT22;3413;47.680;9.166;2022-12-07T09:34:01;8.20;99.90
6752;DHT22;3413;47.680;9.166;2022-12-07T09:39:06;8.20;99.90
6752;DHT22;3413;47.680;9.166;2022-12-07T09:44:21;8.30;99.90
6752;DHT22;3413;47.680;9.166;2022-12-07T09:49:31;8.30;99.90
6752;DHT22;3413;47.680;9.166;2022-12-07T09:54:49;8.30;99.90
6752;DHT22;3413;47.680;9.166;2022-12-07T10:01:41;8.40;99.90
6752;DHT22;3413;47.680;9.166;2022-12-07T10:07:38;8.50;99.90
6752;DHT22;3413;47.680;9.166;2022-12-07T10:14:12;8.50;99.90
6752;DHT22;3413;47.680;9.166;2022-12-07T10:25:43;8.50;99.90
6752;DHT22;3413;47.680;9.166;2022-12-07T10:31:03;8.60;99.90
6752;DHT22;3413;47.680;9.166;2022-12-07T10:36:38;8.60;99.90
6752;DHT22;3413;47.680;9.166;2022-12-07T10:42:17;8.70;99.90
6752;DHT22;3413;47.680;9.166;2022-12-07T10:48:04;8.70;99.90
6752;DHT22;3413;47.680;9.166;2022-12-07T11:16:25;8.80;99.90
6752;DHT22;3413;47.680;9.166;2022-12-07T11:22:01;8.90;99.90
6752;DHT22;3413;47.680;9.166;2022-12-07T11:38:01;8.90;99.90
6752;DHT22;3413;47.680;9.166;2022-12-07T11:43:35;8.90;99.90
6752;DHT22;3413;47.680;9.166;2022-12-07T11:55:00;8.90;99.90
6752;DHT22;3413;47.680;9.166;2022-12-07T12:00:29;8.90;99.90
6752;DHT22;3413;47.680;9.166;2022-12-07T12:05:40;8.90;99.90
6752;DHT22;3413;47.680;9.166;2022-12-07T12:11:08;9.00;99.90
6752;DHT22;3413;47.680;9.166;2022-12-07T12:16:21;9.00;99.90
6752;DHT22;3413;47.680;9.166;2022-12-07T12:21:31;9.00;99.90
6752;DHT22;3413;47.680;9.166;2022-12-07T12:26:36;9.00;99.90
6752;DHT22;3413;47.680;9.166;2022-12-07T12:53:27;9.00;99.90
6752;DHT22;3413;47.680;9.166;2022-12-07T12:58:32;9.10;99.90
6752;DHT22;3413;47.680;9.166;2022-12-07T13:03:39;9.10;99.90
6752;DHT22;3413;47.680;9.166;2022-12-07T13:08:56;9.10;99.90
6752;DHT22;3413;47.680;9.166;2022-12-07T13:25:28;9.10;99.90
6752;DHT22;3413;47.680;9.166;2022-12-07T13:36:43;9.00;99.90
6752;DHT22;3413;47.680;9.166;2022-12-07T13:42:38;9.00;99.90
6752;DHT22;3413;47.680;9.166;2022-12-07T13:54:21;9.10;99.90
6752;DHT22;3413;47.680;9.166;2022-12-07T13:59:25;9.10;99.90
6752;DHT22;3413;47.680;9.166;2022-12-07T14:04:37;9.10;99.90
6752;DHT22;3413;47.680;9.166;2022-12-07T14:09:59;9.10;99.90
6752;DHT22;3413;47.680;9.166;2022-12-07T14:15:02;9.00;99.90
6752;DHT22;3413;47.680;9.166;2022-12-07T14:20:33;9.10;99.90
6752;DHT22;3413;47.680;9.166;2022-12-07T14:26:25;9.20;99.90
6752;DHT22;3413;47.680;9.166;2022-12-07T14:31:46;9.30;99.90
6752;DHT22;3413;47.680;9.166;2022-12-07T14:37:47;9.30;99.90
6752;DHT22;3413;47.680;9.166;2022-12-07T14:43:27;9.30;99.90
6752;DHT22;3413;47.680;9.166;2022-12-07T14:48:44;9.40;99.90
6752;DHT22;3413;47.680;9.166;2022-12-07T14:54:16;9.40;99.90
6752;DHT22;3413;47.680;9.166;2022-12-07T14:59:33;9.40;99.90
6752;DHT22;3413;47.680;9.166;2022-12-07T15:04:46;9.50;99.90
6752;DHT22;3413;47.680;9.166;2022-12-07T15:09:51;9.50;99.90
6752;DHT22;3413;47.680;9.166;2022-12-07T15:14:59;9.50;99.90
6752;DHT22;3413;47.680;9.166;2022-12-07T15:20:08;9.50;99.90
6752;DHT22;3413;47.680;9.166;2022-12-07T15:25:42;9.50;99.90
6752;DHT22;3413;47.680;9.166;2022-12-07T15:31:12;9.40;99.90
6752;DHT22;3413;47.680;9.166;2022-12-07T15:36:37;9.30;99.90
6752;DHT22;3413;47.680;9.166;2022-12-07T15:42:04;9.20;99.90
6752;DHT22;3413;47.680;9.166;2022-12-07T15:47:15;9.20;99.90
6752;DHT22;3413;47.680;9.166;2022-12-07T15:52:19;9.20;99.90
6752;DHT22;3413;47.680;9.166;2022-12-07T15:58:04;9.10;99.90
6752;DHT22;3413;47.680;9.166;2022-12-07T16:09:36;9.00;99.90
6752;DHT22;3413;47.680;9.166;2022-12-07T16:15:37;9.00;99.90
6752;DHT22;3413;47.680;9.166;2022-12-07T16:21:21;9.00;99.90
6752;DHT22;3413;47.680;9.166;2022-12-07T16:26:38;8.80;99.90
6752;DHT22;3413;47.680;9.166;2022-12-07T16:31:54;8.80;99.90
6752;DHT22;3413;47.680;9.166;2022-12-07T16:42:52;9.00;99.90
6752;DHT22;3413;47.680;9.166;2022-12-07T16:48:47;9.00;99.90
6752;DHT22;3413;47.680;9.166;2022-12-07T17:01:49;8.90;99.90
6752;DHT22;3413;47.680;9.166;2022-12-07T17:06:52;8.80;99.90
6752;DHT22;3413;47.680;9.166;2022-12-07T17:11:55;8.80;99.90
6752;DHT22;3413;47.680;9.166;2022-12-07T17:17:24;8.70;99.90
6752;DHT22;3413;47.680;9.166;2022-12-07T17:22:58;8.60;99.90
6752;DHT22;3413;47.680;9.166;2022-12-07T17:28:27;8.50;99.90
6752;DHT22;3413;47.680;9.166;2022-12-07T17:33:47;8.50;99.90
6752;DHT22;3413;47.680;9.166;2022-12-07T17:38:54;8.40;99.90
6752;DHT22;3413;47.680;9.166;2022-12-07T17:44:35;8.40;99.90
6752;DHT22;3413;47.680;9.166;2022-12-07T17:49:41;8.50;99.90
6752;DHT22;3413;47.680;9.166;2022-12-07T18:00:18;8.40;99.90
6752;DHT22;3413;47.680;9.166;2022-12-07T18:05:22;8.30;99.90
6752;DHT22;3413;47.680;9.166;2022-12-07T18:10:27;8.30;99.90
6752;DHT22;3413;47.680;9.166;2022-12-07T18:15:47;8.20;99.90
6752;DHT22;3413;47.680;9.166;2022-12-07T18:20:54;8.20;99.90
6752;DHT22;3413;47.680;9.166;2022-12-07T18:26:03;8.20;99.90
6752;DHT22;3413;47.680;9.166;2022-12-07T18:31:13;8.20;99.90
6752;DHT22;3413;47.680;9.166;2022-12-07T18:36:34;8.10;99.90
6752;DHT22;3413;47.680;9.166;2022-12-07T18:41:53;8.10;99.90
6752;DHT22;3413;47.680;9.166;2022-12-07T18:53:35;8.10;99.90
6752;DHT22;3413;47.680;9.166;2022-12-07T18:58:59;8.00;99.90
6752;DHT22;3413;47.680;9.166;2022-12-07T19:04:38;7.90;99.90
6752;DHT22;3413;47.680;9.166;2022-12-07T19:09:55;7.80;99.90
6752;DHT22;3413;47.680;9.166;2022-12-07T19:15:21;7.80;99.90
6752;DHT22;3413;47.680;9.166;2022-12-07T19:20:28;7.70;99.90
6752;DHT22;3413;47.680;9.166;2022-12-07T19:25:39;7.70;99.90
6752;DHT22;3413;47.680;9.166;2022-12-07T19:30:46;7.70;99.90
6752;DHT22;3413;47.680;9.166;2022-12-07T19:36:22;7.50;99.90
6752;DHT22;3413;47.680;9.166;2022-12-07T19:41:33;7.50;99.90
6752;DHT22;3413;47.680;9.166;2022-12-07T19:46:46;7.40;99.90
6752;DHT22;3413;47.680;9.166;2022-12-07T19:52:16;7.40;99.90
6752;DHT22;3413;47.680;9.166;2022-12-07T20:02:57;7.20;99.90
6752;DHT22;3413;47.680;9.166;2022-12-07T20:08:00;7.10;99.90
6752;DHT22;3413;47.680;9.166;2022-12-07T20:13:02;7.20;99.90
6752;DHT22;3413;47.680;9.166;2022-12-07T20:18:35;7.20;99.90
6752;DHT22;3413;47.680;9.166;2022-12-07T20:23:38;7.20;99.90
6752;DHT22;3413;47.680;9.166;2022-12-07T20:28:46;7.20;99.90
6752;DHT22;3413;47.680;9.166;2022-12-07T20:33:48;7.10;99.90
6752;DHT22;3413;47.680;9.166;2022-12-07T20:38:51;7.00;99.90
6752;DHT22;3413;47.680;9.166;2022-12-07T20:43:55;6.90;99.90
6752;DHT22;3413;47.680;9.166;2022-12-07T20:48:59;6.90;99.90
6752;DHT22;3413;47.680;9.166;2022-12-07T20:54:06;6.80;99.90
6752;DHT22;3413;47.680;9.166;2022-12-07T20:59:20;6.90;99.90
6752;DHT22;3413;47.680;9.166;2022-12-07T21:04:26;6.90;99.90
6752;DHT22;3413;47.680;9.166;2022-12-07T21:09:32;6.90;99.90
6752;DHT22;3413;47.680;9.166;2022-12-07T21:14:41;6.80;99.90
6752;DHT22;3413;47.680;9.166;2022-12-07T21:19:45;6.80;99.90
6752;DHT22;3413;47.680;9.166;2022-12-07T21:24:50;6.80;99.90
6752;DHT22;3413;47.680;9.166;2022-12-07T21:29:53;6.80;99.90
6752;DHT22;3413;47.680;9.166;2022-12-07T21:34:57;6.90;99.90
6752;DHT22;3413;47.680;9.166;2022-12-07T21:40:04;6.80;99.90
6752;DHT22;3413;47.680;9.166;2022-12-07T21:45:10;6.70;99.90
6752;DHT22;3413;47.680;9.166;2022-12-07T21:50:14;6.70;99.90
6752;DHT22;3413;47.680;9.166;2022-12-07T21:55:21;6.70;99.90
6752;DHT22;3413;47.680;9.166;2022-12-07T22:00:27;6.70;99.90
6752;DHT22;3413;47.680;9.166;2022-12-07T22:05:44;6.70;99.90
6752;DHT22;3413;47.680;9.166;2022-12-07T22:10:47;6.80;99.90
6752;DHT22;3413;47.680;9.166;2022-12-07T22:15:55;6.60;99.90
6752;DHT22;3413;47.680;9.166;2022-12-07T22:20:59;6.60;99.90
6752;DHT22;3413;47.680;9.166;2022-12-07T22:26:06;6.50;99.90
6752;DHT22;3413;47.680;9.166;2022-12-07T22:31:12;6.40;99.90
6752;DHT22;3413;47.680;9.166;2022-12-07T22:36:17;6.20;99.90
6752;DHT22;3413;47.680;9.166;2022-12-07T22:41:29;6.10;99.90
6752;DHT22;3413;47.680;9.166;2022-12-07T22:46:32;6.30;99.90
6752;DHT22;3413;47.680;9.166;2022-12-07T22:51:37;6.30;99.90
6752;DHT22;3413;47.680;9.166;2022-12-07T22:56:42;6.30;99.90
6752;DHT22;3413;47.680;9.166;2022-12-07T23:01:46;6.30;99.90
6752;DHT22;3413;47.680;9.166;2022-12-07T23:06:48;6.30;99.90
6752;DHT22;3413;47.680;9.166;2022-12-07T23:11:54;6.20;99.90
6752;DHT22;3413;47.680;9.166;2022-12-07T23:17:17;6.10;99.90
6752;DHT22;3413;47.680;9.166;2022-12-07T23:22:20;6.10;99.90
6752;DHT22;3413;47.680;9.166;2022-12-07T23:27:23;6.10;99.90
6752;DHT22;3413;47.680;9.166;2022-12-07T23:32:44;6.10;99.90
6752;DHT22;3413;47.680;9.166;2022-12-07T23:38:04;6.20;99.90
6752;DHT22;3413;47.680;9.166;2022-12-07T23:43:10;6.20;99.90
6752;DHT22;3413;47.680;9.166;2022-12-07T23:48:17;6.20;99.90
6752;DHT22;3413;47.680;9.166;2022-12-07T23:53:21;6.20;99.90
6752;DHT22;3413;47.680;9.166;2022-12-07T23:58:25;6.20;99.90
